sensor_id;sensor_type;location;lat;lon;timestamp;P1;durP1;ratioP1;P2;durP2;ratioP2
40611;SDS011;26317;44.894;20.286;2022-08-11T00:00:04;11.02;;;3.10;;
40611;SDS011;26317;44.894;20.286;2022-08-11T00:02:37;5.78;;;3.17;;
40611;SDS011;26317;44.894;20.286;2022-08-11T00:05:08;6.50;;;3.83;;
40611;SDS011;26317;44.894;20.286;2022-08-11T00:07:46;6.50;;;3.63;;
40611;SDS011;26317;44.894;20.286;2022-08-11T00:10:18;5.20;;;3.38;;
40611;SDS011;26317;44.894;20.286;2022-08-11T00:12:50;8.45;;;3.50;;
40611;SDS011;26317;44.894;20.286;2022-08-11T00:15:21;6.75;;;4.18;;
40611;SDS011;26317;44.894;20.286;2022-08-11T00:17:55;12.90;;;4.50;;
40611;SDS011;26317;44.894;20.286;2022-08-11T00:20:28;5.57;;;3.40;;
40611;SDS011;26317;44.894;20.286;2022-08-11T00:23:04;7.93;;;3.80;;
40611;SDS011;26317;44.894;20.286;2022-08-11T00:25:39;6.20;;;3.95;;
40611;SDS011;26317;44.894;20.286;2022-08-11T00:28:22;4.13;;;3.58;;
40611;SDS011;26317;44.894;20.286;2022-08-11T00:30:52;7.65;;;3.85;;
40611;SDS011;26317;44.894;20.286;2022-08-11T00:33:23;7.72;;;4.28;;
40611;SDS011;26317;44.894;20.286;2022-08-11T00:35:59;8.15;;;4.50;;
40611;SDS011;26317;44.894;20.286;2022-08-11T00:38:34;9.43;;;4.60;;
40611;SDS011;26317;44.894;20.286;2022-08-11T00:41:16;4.18;;;3.55;;
40611;SDS011;26317;44.894;20.286;2022-08-11T00:44:06;4.90;;;3.92;;
40611;SDS011;26317;44.894;20.286;2022-08-11T00:46:46;5.75;;;4.13;;
40611;SDS011;26317;44.894;20.286;2022-08-11T00:49:29;5.47;;;4.43;;
40611;SDS011;26317;44.894;20.286;2022-08-11T00:52:12;6.22;;;4.13;;
40611;SDS011;26317;44.894;20.286;2022-08-11T01:04:03;7.55;;;4.15;;
40611;SDS011;26317;44.894;20.286;2022-08-11T01:09:51;8.77;;;4.40;;
40611;SDS011;26317;44.894;20.286;2022-08-11T01:12:35;6.32;;;4.20;;
40611;SDS011;26317;44.894;20.286;2022-08-11T01:21:30;4.88;;;3.63;;
40611;SDS011;26317;44.894;20.286;2022-08-11T01:31:07;6.20;;;3.92;;
40611;SDS011;26317;44.894;20.286;2022-08-11T01:34:11;10.57;;;4.15;;
40611;SDS011;26317;44.894;20.286;2022-08-11T01:37:20;6.88;;;3.97;;
40611;SDS011;26317;44.894;20.286;2022-08-11T01:43:42;6.80;;;4.68;;
40611;SDS011;26317;44.894;20.286;2022-08-11T01:46:44;8.00;;;4.00;;
40611;SDS011;26317;44.894;20.286;2022-08-11T01:49:19;7.53;;;4.53;;
40611;SDS011;26317;44.894;20.286;2022-08-11T01:52:11;4.28;;;3.78;;
40611;SDS011;26317;44.894;20.286;2022-08-11T01:54:48;6.28;;;4.57;;
40611;SDS011;26317;44.894;20.286;2022-08-11T01:57:27;5.85;;;3.22;;
40611;SDS011;26317;44.894;20.286;2022-08-11T02:00:06;5.07;;;3.22;;
40611;SDS011;26317;44.894;20.286;2022-08-11T02:12:31;5.00;;;3.30;;
40611;SDS011;26317;44.894;20.286;2022-08-11T02:15:08;5.82;;;3.08;;
40611;SDS011;26317;44.894;20.286;2022-08-11T02:17:52;8.65;;;3.60;;
40611;SDS011;26317;44.894;20.286;2022-08-11T02:20:29;5.43;;;3.10;;
40611;SDS011;26317;44.894;20.286;2022-08-11T02:23:20;7.93;;;3.53;;
40611;SDS011;26317;44.894;20.286;2022-08-11T02:26:13;5.68;;;3.10;;
40611;SDS011;26317;44.894;20.286;2022-08-11T02:28:53;8.57;;;3.63;;
40611;SDS011;26317;44.894;20.286;2022-08-11T02:31:39;8.70;;;2.78;;
40611;SDS011;26317;44.894;20.286;2022-08-11T02:34:29;8.57;;;3.40;;
40611;SDS011;26317;44.894;20.286;2022-08-11T02:37:09;9.93;;;3.40;;
40611;SDS011;26317;44.894;20.286;2022-08-11T02:39:51;3.70;;;2.90;;
40611;SDS011;26317;44.894;20.286;2022-08-11T02:42:32;8.18;;;2.95;;
40611;SDS011;26317;44.894;20.286;2022-08-11T02:45:15;8.30;;;2.67;;
40611;SDS011;26317;44.894;20.286;2022-08-11T02:48:04;8.00;;;2.95;;
40611;SDS011;26317;44.894;20.286;2022-08-11T02:50:55;5.35;;;3.40;;
40611;SDS011;26317;44.894;20.286;2022-08-11T02:53:35;6.57;;;3.60;;
40611;SDS011;26317;44.894;20.286;2022-08-11T02:56:12;7.07;;;3.42;;
40611;SDS011;26317;44.894;20.286;2022-08-11T02:58:53;7.85;;;3.72;;
40611;SDS011;26317;44.894;20.286;2022-08-11T03:01:42;8.43;;;3.75;;
40611;SDS011;26317;44.894;20.286;2022-08-11T03:04:19;9.65;;;3.83;;
40611;SDS011;26317;44.894;20.286;2022-08-11T03:07:04;4.38;;;3.30;;
40611;SDS011;26317;44.894;20.286;2022-08-11T03:09:41;6.15;;;3.85;;
40611;SDS011;26317;44.894;20.286;2022-08-11T03:12:17;5.03;;;3.08;;
40611;SDS011;26317;44.894;20.286;2022-08-11T03:15:08;5.18;;;2.83;;
40611;SDS011;26317;44.894;20.286;2022-08-11T03:17:58;5.35;;;3.20;;
40611;SDS011;26317;44.894;20.286;2022-08-11T03:20:33;6.40;;;3.33;;
40611;SDS011;26317;44.894;20.286;2022-08-11T03:23:12;5.40;;;3.10;;
40611;SDS011;26317;44.894;20.286;2022-08-11T03:25:48;7.35;;;3.20;;
40611;SDS011;26317;44.894;20.286;2022-08-11T03:28:27;5.82;;;3.20;;
40611;SDS011;26317;44.894;20.286;2022-08-11T03:31:09;7.68;;;3.15;;
40611;SDS011;26317;44.894;20.286;2022-08-11T03:33:51;5.65;;;3.38;;
40611;SDS011;26317;44.894;20.286;2022-08-11T03:42:11;11.52;;;3.45;;
40611;SDS011;26317;44.894;20.286;2022-08-11T03:44:49;3.78;;;3.15;;
40611;SDS011;26317;44.894;20.286;2022-08-11T03:47:36;7.47;;;3.97;;
40611;SDS011;26317;44.894;20.286;2022-08-11T03:50:23;6.72;;;3.88;;
40611;SDS011;26317;44.894;20.286;2022-08-11T03:53:05;10.30;;;3.83;;
40611;SDS011;26317;44.894;20.286;2022-08-11T03:55:56;3.92;;;3.40;;
40611;SDS011;26317;44.894;20.286;2022-08-11T03:59:00;8.32;;;3.30;;
40611;SDS011;26317;44.894;20.286;2022-08-11T04:02:03;6.00;;;3.20;;
40611;SDS011;26317;44.894;20.286;2022-08-11T04:04:56;8.48;;;4.40;;
40611;SDS011;26317;44.894;20.286;2022-08-11T04:10:58;5.97;;;4.03;;
40611;SDS011;26317;44.894;20.286;2022-08-11T04:20:28;10.32;;;3.47;;
40611;SDS011;26317;44.894;20.286;2022-08-11T04:23:16;9.50;;;3.28;;
40611;SDS011;26317;44.894;20.286;2022-08-11T04:29:02;7.32;;;3.42;;
40611;SDS011;26317;44.894;20.286;2022-08-11T04:31:42;6.60;;;3.35;;
40611;SDS011;26317;44.894;20.286;2022-08-11T04:43:52;7.57;;;3.85;;
40611;SDS011;26317;44.894;20.286;2022-08-11T04:50:19;8.57;;;3.70;;
40611;SDS011;26317;44.894;20.286;2022-08-11T04:53:28;7.20;;;3.63;;
40611;SDS011;26317;44.894;20.286;2022-08-11T04:56:19;7.53;;;3.47;;
40611;SDS011;26317;44.894;20.286;2022-08-11T04:59:08;3.88;;;3.47;;
40611;SDS011;26317;44.894;20.286;2022-08-11T05:02:35;8.68;;;3.60;;
40611;SDS011;26317;44.894;20.286;2022-08-11T05:05:22;7.07;;;3.97;;
40611;SDS011;26317;44.894;20.286;2022-08-11T05:08:15;9.32;;;3.50;;
40611;SDS011;26317;44.894;20.286;2022-08-11T05:11:37;7.53;;;2.88;;
40611;SDS011;26317;44.894;20.286;2022-08-11T05:14:26;4.53;;;2.80;;
40611;SDS011;26317;44.894;20.286;2022-08-11T05:17:13;8.45;;;3.13;;
40611;SDS011;26317;44.894;20.286;2022-08-11T05:19:55;8.52;;;2.92;;
40611;SDS011;26317;44.894;20.286;2022-08-11T05:22:36;8.90;;;2.72;;
40611;SDS011;26317;44.894;20.286;2022-08-11T05:25:28;3.63;;;2.80;;
40611;SDS011;26317;44.894;20.286;2022-08-11T05:28:15;7.68;;;2.67;;
40611;SDS011;26317;44.894;20.286;2022-08-11T05:31:09;11.13;;;2.70;;
40611;SDS011;26317;44.894;20.286;2022-08-11T05:33:54;8.65;;;2.60;;
40611;SDS011;26317;44.894;20.286;2022-08-11T05:36:40;5.15;;;1.30;;
40611;SDS011;26317;44.894;20.286;2022-08-11T05:39:14;3.58;;;2.05;;
40611;SDS011;26317;44.894;20.286;2022-08-11T05:41:57;7.70;;;3.35;;
40611;SDS011;26317;44.894;20.286;2022-08-11T05:44:43;5.68;;;2.80;;
40611;SDS011;26317;44.894;20.286;2022-08-11T05:47:25;5.47;;;2.45;;
40611;SDS011;26317;44.894;20.286;2022-08-11T05:50:07;3.35;;;2.17;;
40611;SDS011;26317;44.894;20.286;2022-08-11T05:52:50;6.18;;;2.55;;
40611;SDS011;26317;44.894;20.286;2022-08-11T05:55:35;11.57;;;3.25;;
40611;SDS011;26317;44.894;20.286;2022-08-11T05:58:19;7.45;;;2.15;;
40611;SDS011;26317;44.894;20.286;2022-08-11T06:00:50;8.20;;;2.50;;
40611;SDS011;26317;44.894;20.286;2022-08-11T06:03:21;7.47;;;2.10;;
40611;SDS011;26317;44.894;20.286;2022-08-11T06:05:54;3.45;;;2.40;;
40611;SDS011;26317;44.894;20.286;2022-08-11T06:08:29;5.85;;;2.15;;
40611;SDS011;26317;44.894;20.286;2022-08-11T06:11:01;5.72;;;2.25;;
40611;SDS011;26317;44.894;20.286;2022-08-11T06:13:32;4.05;;;2.10;;
40611;SDS011;26317;44.894;20.286;2022-08-11T06:16:04;5.45;;;1.88;;
40611;SDS011;26317;44.894;20.286;2022-08-11T06:18:33;9.57;;;2.35;;
40611;SDS011;26317;44.894;20.286;2022-08-11T06:21:07;3.75;;;2.58;;
40611;SDS011;26317;44.894;20.286;2022-08-11T06:23:38;13.27;;;5.30;;
40611;SDS011;26317;44.894;20.286;2022-08-11T06:26:08;3.38;;;3.08;;
40611;SDS011;26317;44.894;20.286;2022-08-11T06:28:38;4.78;;;3.42;;
40611;SDS011;26317;44.894;20.286;2022-08-11T06:31:15;5.47;;;2.80;;
40611;SDS011;26317;44.894;20.286;2022-08-11T06:33:53;7.35;;;3.28;;
40611;SDS011;26317;44.894;20.286;2022-08-11T06:36:30;7.95;;;2.42;;
40611;SDS011;26317;44.894;20.286;2022-08-11T06:39:06;4.95;;;1.85;;
40611;SDS011;26317;44.894;20.286;2022-08-11T06:41:45;4.45;;;2.40;;
40611;SDS011;26317;44.894;20.286;2022-08-11T06:44:22;7.38;;;2.78;;
40611;SDS011;26317;44.894;20.286;2022-08-11T06:47:03;4.38;;;2.42;;
40611;SDS011;26317;44.894;20.286;2022-08-11T06:49:41;3.08;;;2.72;;
40611;SDS011;26317;44.894;20.286;2022-08-11T06:52:28;8.52;;;4.43;;
40611;SDS011;26317;44.894;20.286;2022-08-11T06:55:04;4.60;;;2.70;;
40611;SDS011;26317;44.894;20.286;2022-08-11T06:57:35;5.95;;;2.40;;
40611;SDS011;26317;44.894;20.286;2022-08-11T07:00:18;6.07;;;3.00;;
40611;SDS011;26317;44.894;20.286;2022-08-11T07:03:01;5.28;;;2.33;;
40611;SDS011;26317;44.894;20.286;2022-08-11T07:05:40;8.65;;;2.70;;
40611;SDS011;26317;44.894;20.286;2022-08-11T07:14:40;6.45;;;2.05;;
40611;SDS011;26317;44.894;20.286;2022-08-11T07:17:28;5.70;;;2.30;;
40611;SDS011;26317;44.894;20.286;2022-08-11T07:20:05;5.80;;;2.25;;
40611;SDS011;26317;44.894;20.286;2022-08-11T07:22:51;8.52;;;3.15;;
40611;SDS011;26317;44.894;20.286;2022-08-11T07:25:35;3.25;;;2.08;;
40611;SDS011;26317;44.894;20.286;2022-08-11T07:28:24;8.43;;;2.47;;
40611;SDS011;26317;44.894;20.286;2022-08-11T07:31:08;4.18;;;3.08;;
40611;SDS011;26317;44.894;20.286;2022-08-11T07:33:43;6.93;;;2.80;;
40611;SDS011;26317;44.894;20.286;2022-08-11T07:36:17;5.68;;;2.47;;
40611;SDS011;26317;44.894;20.286;2022-08-11T07:38:49;1.83;;;1.45;;
40611;SDS011;26317;44.894;20.286;2022-08-11T07:41:21;3.17;;;2.17;;
40611;SDS011;26317;44.894;20.286;2022-08-11T07:43:54;2.40;;;1.95;;
40611;SDS011;26317;44.894;20.286;2022-08-11T07:46:33;7.27;;;2.90;;
40611;SDS011;26317;44.894;20.286;2022-08-11T07:49:15;6.68;;;2.30;;
40611;SDS011;26317;44.894;20.286;2022-08-11T07:51:59;6.35;;;2.58;;
40611;SDS011;26317;44.894;20.286;2022-08-11T07:54:41;5.00;;;2.10;;
40611;SDS011;26317;44.894;20.286;2022-08-11T07:57:11;5.38;;;2.45;;
40611;SDS011;26317;44.894;20.286;2022-08-11T07:59:52;4.47;;;2.08;;
40611;SDS011;26317;44.894;20.286;2022-08-11T08:02:39;6.45;;;1.95;;
40611;SDS011;26317;44.894;20.286;2022-08-11T08:05:22;7.15;;;2.30;;
40611;SDS011;26317;44.894;20.286;2022-08-11T08:08:07;5.90;;;1.85;;
40611;SDS011;26317;44.894;20.286;2022-08-11T08:10:49;3.50;;;2.40;;
40611;SDS011;26317;44.894;20.286;2022-08-11T08:13:31;5.07;;;2.40;;
40611;SDS011;26317;44.894;20.286;2022-08-11T08:16:14;4.72;;;2.30;;
40611;SDS011;26317;44.894;20.286;2022-08-11T08:18:56;7.97;;;2.22;;
40611;SDS011;26317;44.894;20.286;2022-08-11T08:21:25;7.00;;;1.92;;
40611;SDS011;26317;44.894;20.286;2022-08-11T08:23:57;10.48;;;2.78;;
40611;SDS011;26317;44.894;20.286;2022-08-11T08:26:26;6.70;;;2.10;;
40611;SDS011;26317;44.894;20.286;2022-08-11T08:29:07;4.00;;;2.20;;
40611;SDS011;26317;44.894;20.286;2022-08-11T08:31:49;5.82;;;2.33;;
40611;SDS011;26317;44.894;20.286;2022-08-11T08:34:18;3.10;;;2.17;;
40611;SDS011;26317;44.894;20.286;2022-08-11T08:36:48;3.17;;;2.17;;
40611;SDS011;26317;44.894;20.286;2022-08-11T08:41:51;4.10;;;2.05;;
40611;SDS011;26317;44.894;20.286;2022-08-11T08:44:22;5.75;;;2.42;;
40611;SDS011;26317;44.894;20.286;2022-08-11T08:46:53;3.17;;;2.33;;
40611;SDS011;26317;44.894;20.286;2022-08-11T08:49:24;9.68;;;2.13;;
40611;SDS011;26317;44.894;20.286;2022-08-11T08:52:00;5.32;;;2.00;;
40611;SDS011;26317;44.894;20.286;2022-08-11T08:54:35;14.90;;;2.65;;
40611;SDS011;26317;44.894;20.286;2022-08-11T08:57:05;5.43;;;2.47;;
40611;SDS011;26317;44.894;20.286;2022-08-11T08:59:38;4.50;;;2.33;;
40611;SDS011;26317;44.894;20.286;2022-08-11T09:02:08;7.93;;;2.63;;
40611;SDS011;26317;44.894;20.286;2022-08-11T09:04:39;3.22;;;2.70;;
40611;SDS011;26317;44.894;20.286;2022-08-11T09:07:09;3.80;;;2.30;;
40611;SDS011;26317;44.894;20.286;2022-08-11T09:12:12;5.90;;;2.38;;
40611;SDS011;26317;44.894;20.286;2022-08-11T09:17:31;4.05;;;2.03;;
40611;SDS011;26317;44.894;20.286;2022-08-11T09:20:03;6.43;;;2.38;;
40611;SDS011;26317;44.894;20.286;2022-08-11T09:22:34;8.68;;;2.70;;
40611;SDS011;26317;44.894;20.286;2022-08-11T09:25:21;8.70;;;2.67;;
40611;SDS011;26317;44.894;20.286;2022-08-11T09:28:08;3.95;;;2.72;;
40611;SDS011;26317;44.894;20.286;2022-08-11T09:30:39;3.05;;;2.35;;
40611;SDS011;26317;44.894;20.286;2022-08-11T09:33:10;4.75;;;1.85;;
40611;SDS011;26317;44.894;20.286;2022-08-11T09:35:42;4.18;;;1.80;;
40611;SDS011;26317;44.894;20.286;2022-08-11T09:38:14;5.63;;;2.50;;
40611;SDS011;26317;44.894;20.286;2022-08-11T09:41:00;3.45;;;2.08;;
40611;SDS011;26317;44.894;20.286;2022-08-11T09:43:30;4.35;;;1.95;;
40611;SDS011;26317;44.894;20.286;2022-08-11T09:46:12;3.25;;;2.15;;
40611;SDS011;26317;44.894;20.286;2022-08-11T09:48:43;3.28;;;2.17;;
40611;SDS011;26317;44.894;20.286;2022-08-11T09:51:13;5.35;;;2.40;;
40611;SDS011;26317;44.894;20.286;2022-08-11T09:56:16;3.60;;;2.42;;
40611;SDS011;26317;44.894;20.286;2022-08-11T09:59:00;4.20;;;2.17;;
40611;SDS011;26317;44.894;20.286;2022-08-11T10:01:31;1.95;;;1.85;;
40611;SDS011;26317;44.894;20.286;2022-08-11T10:04:07;4.30;;;2.20;;
40611;SDS011;26317;44.894;20.286;2022-08-11T10:06:42;2.70;;;1.45;;
40611;SDS011;26317;44.894;20.286;2022-08-11T10:09:24;5.50;;;2.20;;
40611;SDS011;26317;44.894;20.286;2022-08-11T10:11:57;3.35;;;1.58;;
40611;SDS011;26317;44.894;20.286;2022-08-11T10:14:28;2.05;;;1.85;;
40611;SDS011;26317;44.894;20.286;2022-08-11T10:17:11;2.03;;;1.83;;
40611;SDS011;26317;44.894;20.286;2022-08-11T10:19:44;16.38;;;3.20;;
40611;SDS011;26317;44.894;20.286;2022-08-11T10:22:15;5.50;;;1.75;;
40611;SDS011;26317;44.894;20.286;2022-08-11T10:24:57;3.53;;;2.08;;
40611;SDS011;26317;44.894;20.286;2022-08-11T10:27:43;3.53;;;1.85;;
40611;SDS011;26317;44.894;20.286;2022-08-11T10:30:13;5.18;;;1.98;;
40611;SDS011;26317;44.894;20.286;2022-08-11T10:32:54;2.97;;;1.80;;
40611;SDS011;26317;44.894;20.286;2022-08-11T10:35:37;3.40;;;1.88;;
40611;SDS011;26317;44.894;20.286;2022-08-11T10:38:06;7.00;;;2.38;;
40611;SDS011;26317;44.894;20.286;2022-08-11T10:40:36;4.90;;;2.17;;
40611;SDS011;26317;44.894;20.286;2022-08-11T10:43:10;3.90;;;2.10;;
40611;SDS011;26317;44.894;20.286;2022-08-11T10:45:39;3.88;;;1.80;;
40611;SDS011;26317;44.894;20.286;2022-08-11T10:48:23;6.15;;;1.98;;
40611;SDS011;26317;44.894;20.286;2022-08-11T10:50:54;4.75;;;2.20;;
40611;SDS011;26317;44.894;20.286;2022-08-11T10:53:37;5.93;;;2.30;;
40611;SDS011;26317;44.894;20.286;2022-08-11T10:56:19;3.97;;;1.67;;
40611;SDS011;26317;44.894;20.286;2022-08-11T10:59:04;3.65;;;1.90;;
40611;SDS011;26317;44.894;20.286;2022-08-11T11:01:37;3.05;;;1.98;;
40611;SDS011;26317;44.894;20.286;2022-08-11T11:04:11;1.65;;;1.55;;
40611;SDS011;26317;44.894;20.286;2022-08-11T11:06:47;3.75;;;1.80;;
40611;SDS011;26317;44.894;20.286;2022-08-11T11:09:20;4.10;;;1.85;;
40611;SDS011;26317;44.894;20.286;2022-08-11T11:11:58;6.70;;;1.90;;
40611;SDS011;26317;44.894;20.286;2022-08-11T11:14:45;3.10;;;1.60;;
40611;SDS011;26317;44.894;20.286;2022-08-11T11:17:31;5.03;;;1.55;;
40611;SDS011;26317;44.894;20.286;2022-08-11T11:20:18;6.55;;;1.70;;
40611;SDS011;26317;44.894;20.286;2022-08-11T11:22:52;2.47;;;2.28;;
40611;SDS011;26317;44.894;20.286;2022-08-11T11:31:55;3.60;;;1.65;;
40611;SDS011;26317;44.894;20.286;2022-08-11T11:34:54;6.88;;;2.25;;
40611;SDS011;26317;44.894;20.286;2022-08-11T11:37:41;4.25;;;1.75;;
40611;SDS011;26317;44.894;20.286;2022-08-11T11:40:13;3.42;;;1.98;;
40611;SDS011;26317;44.894;20.286;2022-08-11T11:42:45;2.22;;;1.95;;
40611;SDS011;26317;44.894;20.286;2022-08-11T11:45:18;5.20;;;2.50;;
40611;SDS011;26317;44.894;20.286;2022-08-11T11:47:52;2.78;;;1.60;;
40611;SDS011;26317;44.894;20.286;2022-08-11T11:50:24;1.88;;;1.70;;
40611;SDS011;26317;44.894;20.286;2022-08-11T11:52:54;5.65;;;2.13;;
40611;SDS011;26317;44.894;20.286;2022-08-11T11:55:25;1.58;;;1.40;;
40611;SDS011;26317;44.894;20.286;2022-08-11T11:57:56;5.82;;;1.73;;
40611;SDS011;26317;44.894;20.286;2022-08-11T12:00:40;4.75;;;1.60;;
40611;SDS011;26317;44.894;20.286;2022-08-11T12:03:25;1.55;;;1.38;;
40611;SDS011;26317;44.894;20.286;2022-08-11T12:05:55;1.70;;;1.60;;
40611;SDS011;26317;44.894;20.286;2022-08-11T12:08:24;1.52;;;1.42;;
40611;SDS011;26317;44.894;20.286;2022-08-11T12:10:56;2.45;;;1.13;;
40611;SDS011;26317;44.894;20.286;2022-08-11T12:13:40;5.28;;;1.30;;
40611;SDS011;26317;44.894;20.286;2022-08-11T12:16:12;4.40;;;1.45;;
40611;SDS011;26317;44.894;20.286;2022-08-11T12:18:45;2.13;;;1.65;;
40611;SDS011;26317;44.894;20.286;2022-08-11T12:21:16;3.65;;;1.77;;
40611;SDS011;26317;44.894;20.286;2022-08-11T12:23:46;6.88;;;2.45;;
40611;SDS011;26317;44.894;20.286;2022-08-11T12:26:28;3.13;;;2.03;;
40611;SDS011;26317;44.894;20.286;2022-08-11T12:29:10;2.67;;;1.50;;
40611;SDS011;26317;44.894;20.286;2022-08-11T12:31:40;3.63;;;1.60;;
40611;SDS011;26317;44.894;20.286;2022-08-11T12:34:13;2.03;;;1.50;;
40611;SDS011;26317;44.894;20.286;2022-08-11T12:36:45;12.60;;;2.47;;
40611;SDS011;26317;44.894;20.286;2022-08-11T12:39:19;3.88;;;1.77;;
40611;SDS011;26317;44.894;20.286;2022-08-11T12:42:11;3.90;;;1.90;;
40611;SDS011;26317;44.894;20.286;2022-08-11T12:44:56;2.00;;;1.77;;
40611;SDS011;26317;44.894;20.286;2022-08-11T12:47:39;2.35;;;1.80;;
40611;SDS011;26317;44.894;20.286;2022-08-11T12:50:25;1.77;;;1.20;;
40611;SDS011;26317;44.894;20.286;2022-08-11T12:53:07;2.15;;;1.75;;
40611;SDS011;26317;44.894;20.286;2022-08-11T12:55:39;5.85;;;1.90;;
40611;SDS011;26317;44.894;20.286;2022-08-11T12:58:21;9.57;;;2.20;;
40611;SDS011;26317;44.894;20.286;2022-08-11T13:00:50;3.75;;;1.98;;
40611;SDS011;26317;44.894;20.286;2022-08-11T13:03:32;7.95;;;1.85;;
40611;SDS011;26317;44.894;20.286;2022-08-11T13:06:17;2.50;;;1.25;;
40611;SDS011;26317;44.894;20.286;2022-08-11T13:08:50;1.40;;;1.27;;
40611;SDS011;26317;44.894;20.286;2022-08-11T13:11:22;3.83;;;1.38;;
40611;SDS011;26317;44.894;20.286;2022-08-11T13:14:04;2.63;;;1.33;;
40611;SDS011;26317;44.894;20.286;2022-08-11T13:16:33;2.67;;;1.67;;
40611;SDS011;26317;44.894;20.286;2022-08-11T13:19:36;1.83;;;1.52;;
40611;SDS011;26317;44.894;20.286;2022-08-11T13:22:08;4.43;;;1.67;;
40611;SDS011;26317;44.894;20.286;2022-08-11T13:24:38;2.03;;;1.30;;
40611;SDS011;26317;44.894;20.286;2022-08-11T13:27:07;4.60;;;2.25;;
40611;SDS011;26317;44.894;20.286;2022-08-11T13:29:37;3.75;;;1.58;;
40611;SDS011;26317;44.894;20.286;2022-08-11T13:32:11;3.05;;;1.85;;
40611;SDS011;26317;44.894;20.286;2022-08-11T13:34:43;4.38;;;1.98;;
40611;SDS011;26317;44.894;20.286;2022-08-11T13:37:15;2.38;;;1.52;;
40611;SDS011;26317;44.894;20.286;2022-08-11T13:39:47;2.33;;;1.50;;
40611;SDS011;26317;44.894;20.286;2022-08-11T13:42:16;2.65;;;1.55;;
40611;SDS011;26317;44.894;20.286;2022-08-11T13:44:48;6.22;;;1.38;;
40611;SDS011;26317;44.894;20.286;2022-08-11T13:47:18;3.77;;;1.93;;
40611;SDS011;26317;44.894;20.286;2022-08-11T13:49:47;3.20;;;1.50;;
40611;SDS011;26317;44.894;20.286;2022-08-11T13:52:19;2.38;;;2.03;;
40611;SDS011;26317;44.894;20.286;2022-08-11T13:54:48;3.97;;;1.33;;
40611;SDS011;26317;44.894;20.286;2022-08-11T13:57:18;6.07;;;1.48;;
40611;SDS011;26317;44.894;20.286;2022-08-11T13:59:50;2.35;;;1.15;;
40611;SDS011;26317;44.894;20.286;2022-08-11T14:02:38;5.13;;;2.15;;
40611;SDS011;26317;44.894;20.286;2022-08-11T14:05:10;2.35;;;1.10;;
40611;SDS011;26317;44.894;20.286;2022-08-11T14:07:47;4.10;;;1.23;;
40611;SDS011;26317;44.894;20.286;2022-08-11T14:10:19;2.83;;;1.38;;
40611;SDS011;26317;44.894;20.286;2022-08-11T14:12:53;6.00;;;1.80;;
40611;SDS011;26317;44.894;20.286;2022-08-11T14:15:39;4.68;;;1.20;;
40611;SDS011;26317;44.894;20.286;2022-08-11T14:18:17;2.60;;;1.30;;
40611;SDS011;26317;44.894;20.286;2022-08-11T14:20:51;3.20;;;1.42;;
40611;SDS011;26317;44.894;20.286;2022-08-11T14:23:37;2.47;;;1.63;;
40611;SDS011;26317;44.894;20.286;2022-08-11T14:26:08;7.60;;;1.27;;
40611;SDS011;26317;44.894;20.286;2022-08-11T14:28:50;1.33;;;1.23;;
40611;SDS011;26317;44.894;20.286;2022-08-11T14:31:21;1.52;;;1.17;;
40611;SDS011;26317;44.894;20.286;2022-08-11T14:33:52;1.80;;;1.20;;
40611;SDS011;26317;44.894;20.286;2022-08-11T14:36:23;2.10;;;1.90;;
40611;SDS011;26317;44.894;20.286;2022-08-11T14:38:57;3.17;;;1.27;;
40611;SDS011;26317;44.894;20.286;2022-08-11T14:41:28;1.52;;;1.30;;
40611;SDS011;26317;44.894;20.286;2022-08-11T14:44:11;5.10;;;1.20;;
40611;SDS011;26317;44.894;20.286;2022-08-11T14:46:53;2.13;;;1.10;;
40611;SDS011;26317;44.894;20.286;2022-08-11T14:49:33;1.50;;;1.40;;
40611;SDS011;26317;44.894;20.286;2022-08-11T14:52:06;2.05;;;1.10;;
40611;SDS011;26317;44.894;20.286;2022-08-11T14:54:44;4.72;;;1.60;;
40611;SDS011;26317;44.894;20.286;2022-08-11T14:57:28;3.58;;;1.88;;
40611;SDS011;26317;44.894;20.286;2022-08-11T14:59:58;1.45;;;1.10;;
40611;SDS011;26317;44.894;20.286;2022-08-11T15:02:28;1.85;;;1.20;;
40611;SDS011;26317;44.894;20.286;2022-08-11T15:05:10;1.33;;;1.05;;
40611;SDS011;26317;44.894;20.286;2022-08-11T15:07:40;1.45;;;1.20;;
40611;SDS011;26317;44.894;20.286;2022-08-11T15:10:11;1.10;;;1.00;;
40611;SDS011;26317;44.894;20.286;2022-08-11T15:12:43;3.33;;;1.98;;
40611;SDS011;26317;44.894;20.286;2022-08-11T15:15:13;8.18;;;1.35;;
40611;SDS011;26317;44.894;20.286;2022-08-11T15:17:57;3.92;;;1.48;;
40611;SDS011;26317;44.894;20.286;2022-08-11T15:20:29;2.28;;;1.27;;
40611;SDS011;26317;44.894;20.286;2022-08-11T15:23:11;6.63;;;1.80;;
40611;SDS011;26317;44.894;20.286;2022-08-11T15:25:57;1.40;;;1.30;;
40611;SDS011;26317;44.894;20.286;2022-08-11T15:28:29;2.95;;;1.40;;
40611;SDS011;26317;44.894;20.286;2022-08-11T15:31:13;8.77;;;2.03;;
40611;SDS011;26317;44.894;20.286;2022-08-11T15:34:00;12.85;;;6.28;;
40611;SDS011;26317;44.894;20.286;2022-08-11T15:36:43;7.25;;;2.03;;
40611;SDS011;26317;44.894;20.286;2022-08-11T15:39:27;5.75;;;1.52;;
40611;SDS011;26317;44.894;20.286;2022-08-11T15:42:06;4.63;;;1.23;;
40611;SDS011;26317;44.894;20.286;2022-08-11T15:44:53;7.20;;;1.15;;
40611;SDS011;26317;44.894;20.286;2022-08-11T15:47:40;1.77;;;1.48;;
40611;SDS011;26317;44.894;20.286;2022-08-11T15:50:12;3.13;;;1.85;;
40611;SDS011;26317;44.894;20.286;2022-08-11T15:52:47;3.50;;;0.95;;
40611;SDS011;26317;44.894;20.286;2022-08-11T15:55:20;4.72;;;1.42;;
40611;SDS011;26317;44.894;20.286;2022-08-11T15:57:54;1.75;;;1.00;;
40611;SDS011;26317;44.894;20.286;2022-08-11T16:00:38;4.43;;;1.85;;
40611;SDS011;26317;44.894;20.286;2022-08-11T16:03:23;1.13;;;1.10;;
40611;SDS011;26317;44.894;20.286;2022-08-11T16:06:06;5.47;;;1.02;;
40611;SDS011;26317;44.894;20.286;2022-08-11T16:08:35;5.30;;;1.63;;
40611;SDS011;26317;44.894;20.286;2022-08-11T16:11:07;4.55;;;1.30;;
40611;SDS011;26317;44.894;20.286;2022-08-11T16:13:39;3.53;;;1.20;;
40611;SDS011;26317;44.894;20.286;2022-08-11T16:16:22;4.10;;;1.30;;
40611;SDS011;26317;44.894;20.286;2022-08-11T16:18:53;6.67;;;1.63;;
40611;SDS011;26317;44.894;20.286;2022-08-11T16:21:25;2.17;;;1.13;;
40611;SDS011;26317;44.894;20.286;2022-08-11T16:23:59;0.95;;;0.90;;
40611;SDS011;26317;44.894;20.286;2022-08-11T16:26:31;4.88;;;1.23;;
40611;SDS011;26317;44.894;20.286;2022-08-11T16:29:06;2.78;;;1.05;;
40611;SDS011;26317;44.894;20.286;2022-08-11T16:31:37;1.30;;;0.85;;
40611;SDS011;26317;44.894;20.286;2022-08-11T16:34:28;3.08;;;1.20;;
40611;SDS011;26317;44.894;20.286;2022-08-11T16:37:12;6.82;;;1.45;;
40611;SDS011;26317;44.894;20.286;2022-08-11T16:39:53;2.78;;;1.30;;
40611;SDS011;26317;44.894;20.286;2022-08-11T16:42:22;4.03;;;1.73;;
40611;SDS011;26317;44.894;20.286;2022-08-11T16:45:06;4.85;;;1.40;;
40611;SDS011;26317;44.894;20.286;2022-08-11T16:47:48;4.97;;;1.48;;
40611;SDS011;26317;44.894;20.286;2022-08-11T16:50:18;3.03;;;1.77;;
40611;SDS011;26317;44.894;20.286;2022-08-11T16:52:48;4.07;;;1.35;;
40611;SDS011;26317;44.894;20.286;2022-08-11T16:55:16;8.70;;;1.90;;
40611;SDS011;26317;44.894;20.286;2022-08-11T16:57:46;7.18;;;1.40;;
40611;SDS011;26317;44.894;20.286;2022-08-11T17:00:32;4.80;;;1.48;;
40611;SDS011;26317;44.894;20.286;2022-08-11T17:03:02;3.50;;;1.50;;
40611;SDS011;26317;44.894;20.286;2022-08-11T17:05:56;10.13;;;1.33;;
40611;SDS011;26317;44.894;20.286;2022-08-11T17:08:42;5.28;;;1.60;;
40611;SDS011;26317;44.894;20.286;2022-08-11T17:11:28;7.50;;;1.75;;
40611;SDS011;26317;44.894;20.286;2022-08-11T17:14:14;5.80;;;1.83;;